Terminal Aerodrome Forecast
Issued by NWS Blacksburg, VA

Home | Current Version | Previous Version | Text Only | Print | Product List | Glossary On
Versions: 1 2 3 4 5 6 7 8 9 10 11 12 13 14 15 16 17 18 19 20 21 22 23 24 25 26 27 28 29 30 31 32 33 34 35 36 37 38 39 40 41 42 43 44 45 46 47 48 49 50
000
FTUS41 KRNK 060134 AAA
TAFDAN
TAF AMD
KDAN 060134Z 0602/0624 33008KT 6SM -SHRA BR SCT007 OVC020
      TEMPO 0602/0605 3SM SHRA BR BKN007
     FM061300 33005KT 5SM -SHRA BR OVC025
     FM061900 35008KT 6SM -SHRA BR OVC040=

USA.gov is the U.S. government's official web portal to all federal, state and local government web resources and services.